createdAt,value
2023-05-14T00:05:22.861Z,96.3434
2023-05-14T00:06:23.772Z,96.4313
2023-05-14T00:07:24.662Z,96.5610
2023-05-14T00:08:25.549Z,96.4683
2023-05-14T00:09:26.401Z,95.9037
2023-05-14T00:10:27.265Z,96.0326
2023-05-14T00:11:28.127Z,96.4085
2023-05-14T00:12:29.037Z,96.8632
2023-05-14T00:13:29.927Z,97.0741
2023-05-14T00:14:30.764Z,96.4337
2023-05-14T00:15:33.622Z,96.0502
2023-05-14T00:16:32.436Z,95.9444
2023-05-14T00:17:34.390Z,96.2100
2023-05-14T00:18:36.221Z,96.2853
2023-05-14T00:19:41.105Z,96.3181
2023-05-14T00:21:41.372Z,96.5709
2023-05-14T00:22:43.924Z,96.5839
2023-05-14T00:23:44.799Z,96.5919
2023-05-14T00:24:46.294Z,96.2822
2023-05-14T00:25:47.973Z,95.7108
2023-05-14T00:26:48.871Z,95.7510
2023-05-14T00:27:50.371Z,96.0718
2023-05-14T00:28:51.905Z,96.3360
2023-05-14T00:29:53.236Z,96.4756
2023-05-14T00:30:54.750Z,96.6081
2023-05-14T00:31:55.664Z,96.9600
2023-05-14T00:32:56.581Z,96.8851
2023-05-14T00:33:58.075Z,96.8198
2023-05-14T00:34:59.562Z,96.9843
2023-05-14T00:36:00.441Z,96.9744
2023-05-14T00:37:01.364Z,97.1175
2023-05-14T00:38:02.602Z,97.0595
2023-05-14T00:39:03.484Z,96.7976
2023-05-14T00:40:04.625Z,96.5661
2023-05-14T00:41:05.555Z,96.0785
2023-05-14T00:42:06.488Z,96.3160
2023-05-14T00:43:07.346Z,96.4270
2023-05-14T00:44:08.244Z,96.5704
2023-05-14T00:45:09.087Z,96.6589
2023-05-14T00:46:10.225Z,96.7698
2023-05-14T00:47:11.109Z,96.5749
2023-05-14T00:48:11.962Z,96.1972
2023-05-14T00:49:12.827Z,96.2003
2023-05-14T00:50:13.709Z,96.5034
2023-05-14T00:51:14.581Z,96.4322
2023-05-14T00:52:16.066Z,96.5074
2023-05-14T00:53:17.572Z,96.6181
2023-05-14T00:54:18.455Z,96.9941
2023-05-14T00:55:20.803Z,96.5768
2023-05-14T00:56:22.417Z,96.6402
2023-05-14T00:57:23.306Z,96.7884
2023-05-14T00:58:24.168Z,96.6565
2023-05-14T01:00:26.144Z,96.1273
2023-05-14T01:01:27.133Z,95.9497
2023-05-14T01:02:28.090Z,95.7860
2023-05-14T01:03:30.080Z,95.9525
2023-05-14T01:04:31.035Z,95.9991
2023-05-14T01:05:31.924Z,95.9083
2023-05-14T01:06:33.754Z,95.6388
2023-05-14T01:07:34.650Z,95.8237
2023-05-14T01:08:36.162Z,95.6441
2023-05-14T01:09:37.053Z,95.6628
2023-05-14T01:10:37.967Z,95.5266
2023-05-14T01:11:39.429Z,95.5875
2023-05-14T01:12:40.331Z,95.9268
2023-05-14T01:13:41.245Z,95.9666
2023-05-14T01:14:42.181Z,96.3072
2023-05-14T01:15:43.387Z,96.6033
2023-05-14T01:16:44.292Z,96.5323
2023-05-14T01:17:46.021Z,96.2788
2023-05-14T01:18:47.678Z,96.4518
2023-05-14T01:19:48.597Z,95.8756
2023-05-14T01:20:50.137Z,95.4923
2023-05-14T01:21:51.108Z,95.3520
2023-05-14T01:22:51.992Z,95.4459
2023-05-14T01:23:52.930Z,95.1572
2023-05-14T01:24:54.904Z,94.9945
2023-05-14T01:25:55.844Z,95.2063
2023-05-14T01:26:57.316Z,95.4033
2023-05-14T01:27:58.841Z,95.5285
2023-05-14T01:29:00.499Z,95.5499
2023-05-14T01:30:01.396Z,95.8960
2023-05-14T01:31:03.160Z,96.0597
2023-05-14T01:32:04.896Z,96.0303
2023-05-14T01:33:06.006Z,95.9976
2023-05-14T01:34:07.831Z,95.3771
2023-05-14T01:35:09.395Z,95.3501
2023-05-14T01:36:10.293Z,95.2318
2023-05-14T01:37:11.217Z,95.1770
2023-05-14T01:38:12.152Z,95.3648
2023-05-14T01:39:13.100Z,95.3089
2023-05-14T01:41:14.809Z,95.9058
2023-05-14T01:42:15.759Z,96.0156
2023-05-14T01:43:16.720Z,96.2129
2023-05-14T01:44:17.675Z,96.4234
2023-05-14T01:45:18.609Z,96.5544
2023-05-14T01:46:19.785Z,95.6094
2023-05-14T01:47:20.762Z,95.7714
2023-05-14T01:48:21.744Z,95.9776
2023-05-14T01:49:22.706Z,96.1416
2023-05-14T01:50:23.740Z,96.4123
2023-05-14T01:51:24.725Z,96.2812
2023-05-14T01:52:25.630Z,96.2772
2023-05-14T01:53:26.549Z,96.0000
2023-05-14T01:54:27.457Z,96.3504
2023-05-14T01:55:28.553Z,96.4649
2023-05-14T01:56:29.536Z,96.4383
2023-05-14T01:57:30.428Z,96.1297
2023-05-14T01:59:32.096Z,96.2914
2023-05-14T02:00:33.027Z,96.6584
2023-05-14T02:01:34.449Z,96.8869
2023-05-14T02:02:35.452Z,96.9597
2023-05-14T02:03:36.416Z,96.9321
2023-05-14T02:04:37.354Z,96.3726
2023-05-14T02:05:38.278Z,96.7460
2023-05-14T02:06:39.204Z,96.9938
2023-05-14T02:07:40.121Z,97.0560
2023-05-14T02:08:41.109Z,97.4002
2023-05-14T02:09:42.012Z,97.5884
2023-05-14T02:10:42.972Z,97.3650
2023-05-14T02:11:43.923Z,96.9651
2023-05-14T02:12:45.009Z,96.8798
2023-05-14T02:13:45.906Z,96.4659
2023-05-14T02:14:46.861Z,96.9655
2023-05-14T02:15:47.819Z,97.1696
2023-05-14T02:16:48.743Z,97.1459
2023-05-14T02:17:49.697Z,97.1017
2023-05-14T02:18:50.704Z,97.1831
2023-05-14T02:19:51.672Z,97.1896
2023-05-14T02:20:52.615Z,97.2148
2023-05-14T02:21:53.537Z,97.1426
2023-05-14T02:22:54.497Z,96.7696
2023-05-14T02:23:55.432Z,96.9452
2023-05-14T02:24:56.362Z,96.8260
2023-05-14T02:25:57.486Z,96.9636
2023-05-14T02:27:00.196Z,97.0780
2023-05-14T02:28:01.081Z,97.1161
2023-05-14T02:29:02.249Z,97.4523
2023-05-14T02:30:03.137Z,97.3259
2023-05-14T02:31:04.096Z,96.6679
2023-05-14T02:32:05.772Z,96.6901
2023-05-14T02:33:07.456Z,96.9107
2023-05-14T02:34:09.029Z,96.6958
2023-05-14T02:35:10.327Z,96.5885
2023-05-14T02:36:11.870Z,96.4976
2023-05-14T02:37:13.412Z,96.5823
2023-05-14T02:39:15.789Z,96.8931
2023-05-14T02:40:16.720Z,96.9831
2023-05-14T02:41:18.323Z,97.1220
2023-05-14T02:42:19.323Z,97.5190
2023-05-14T02:43:20.282Z,97.8162
2023-05-14T02:52:27.987Z,98.2233
2023-05-14T02:53:28.933Z,98.2005
2023-05-14T02:54:29.860Z,98.1324
2023-05-14T02:55:30.829Z,98.2528
2023-05-14T02:56:31.764Z,98.3453
2023-05-14T02:58:34.808Z,98.5383
2023-05-14T02:59:35.956Z,98.4623
2023-05-14T03:00:37.126Z,98.4306
2023-05-14T03:01:38.658Z,98.4713
2023-05-14T03:07:43.740Z,98.7097
2023-05-14T03:08:44.654Z,98.6514
2023-05-14T03:12:49.137Z,98.5057
2023-05-14T03:13:50.076Z,98.4199
2023-05-14T03:14:51.123Z,98.3648
2023-05-14T03:15:52.643Z,98.1077
2023-05-14T03:16:53.798Z,98.2178
2023-05-14T03:17:54.763Z,98.3957
2023-05-14T03:18:55.952Z,98.4651
2023-05-14T03:19:56.867Z,98.4716
2023-05-14T03:21:59.511Z,98.2353
2023-05-14T03:23:00.453Z,98.4073
2023-05-14T03:24:01.372Z,98.5212
2023-05-14T03:25:03.401Z,98.6227
2023-05-14T03:26:04.541Z,98.7563
2023-05-14T03:27:05.482Z,98.8065
2023-05-14T03:28:06.467Z,98.8367
2023-05-14T03:29:07.405Z,98.9223
2023-05-14T03:30:08.379Z,99.0013
2023-05-14T03:31:09.351Z,99.0630
2023-05-14T03:32:10.266Z,99.0968
2023-05-14T03:33:11.175Z,99.1426
2023-05-14T03:34:12.159Z,99.2629
2023-05-14T03:35:13.082Z,99.3013
2023-05-14T03:36:14.036Z,99.3624
2023-05-14T03:37:14.936Z,99.4694
2023-05-14T03:38:15.922Z,99.4952
2023-05-14T03:39:16.839Z,99.5425
2023-05-14T03:40:17.782Z,99.5734
2023-05-14T03:42:19.540Z,99.6519
2023-05-14T03:43:20.532Z,99.6817
2023-05-14T03:44:21.464Z,99.7016
2023-05-14T03:45:22.415Z,99.7517
2023-05-14T03:46:23.598Z,99.7817
2023-05-14T03:47:24.500Z,99.8389
2023-05-14T03:48:25.560Z,99.8623
2023-05-14T03:49:26.610Z,99.8818
2023-05-14T03:50:27.619Z,99.9350
2023-05-14T03:51:28.554Z,99.9212
2023-05-14T03:52:29.761Z,99.9546
2023-05-14T03:53:30.717Z,99.9712
2023-05-14T03:54:32.881Z,99.9909
2023-05-14T03:55:34.452Z,99.9981
2023-05-14T03:56:36.070Z,100.0000
2023-05-14T03:57:37.037Z,100.0000
2023-05-14T03:58:38.567Z,100.0000
2023-05-14T03:59:40.135Z,100.0000
2023-05-14T04:00:41.086Z,100.0000
2023-05-14T04:01:43.403Z,99.9997
2023-05-14T04:02:44.785Z,99.9977
2023-05-14T04:03:46.182Z,99.9851
2023-05-14T04:05:48.110Z,99.9995
2023-05-14T04:06:49.021Z,99.9987
2023-05-14T04:09:51.815Z,99.8195
2023-05-14T04:13:55.688Z,99.5827
2023-05-14T04:14:56.655Z,99.6610
2023-05-14T04:15:57.641Z,99.6275
2023-05-14T04:17:00.104Z,99.3265
2023-05-14T04:18:01.236Z,99.2352
2023-05-14T04:19:02.271Z,99.2699
2023-05-14T04:20:03.982Z,99.0625
2023-05-14T04:22:06.691Z,98.6510
2023-05-14T04:23:08.212Z,98.6135
2023-05-14T04:25:10.623Z,98.7297
2023-05-14T04:26:11.556Z,98.6893
2023-05-14T04:27:12.560Z,98.5484
2023-05-14T04:28:14.733Z,98.2878
2023-05-14T04:29:16.283Z,98.0111
2023-05-14T04:30:17.828Z,98.0172
2023-05-14T04:31:18.853Z,97.7619
2023-05-14T04:32:20.458Z,97.7516
2023-05-14T04:33:22.049Z,97.7039
2023-05-14T04:34:22.963Z,97.4362
2023-05-14T04:35:25.258Z,97.5703
2023-05-14T04:36:26.896Z,97.6857
2023-05-14T04:37:27.850Z,97.3510
2023-05-14T04:38:29.432Z,97.0344
2023-05-14T04:39:30.333Z,97.0909
2023-05-14T04:40:31.220Z,97.3584
2023-05-14T04:41:32.932Z,96.9882
2023-05-14T04:42:34.480Z,96.9695
2023-05-14T04:43:35.977Z,97.0326
2023-05-14T04:44:36.884Z,96.4000
2023-05-14T04:45:38.430Z,96.4566
2023-05-14T04:46:39.407Z,95.7297
2023-05-14T04:47:40.389Z,95.7501
2023-05-14T04:48:41.669Z,96.1013
2023-05-14T04:49:43.182Z,95.4745
2023-05-14T04:50:45.227Z,95.0360
2023-05-14T04:51:46.157Z,94.4237
2023-05-14T04:52:47.101Z,94.8736
2023-05-14T04:53:48.005Z,95.0484
2023-05-14T04:54:48.967Z,95.1966
2023-05-14T04:55:49.886Z,94.9891
2023-05-14T04:56:50.812Z,94.9459
2023-05-14T04:57:51.728Z,95.0339
2023-05-14T04:58:52.663Z,94.8209
2023-05-14T04:59:53.575Z,94.6357
2023-05-14T05:00:54.512Z,94.5584
2023-05-14T05:01:55.454Z,94.4652
2023-05-14T05:02:56.405Z,94.2553
2023-05-14T05:03:57.315Z,94.2396
2023-05-14T05:04:58.260Z,94.0995
2023-05-14T05:05:59.200Z,93.6334
2023-05-14T05:07:00.130Z,93.4048
2023-05-14T05:08:01.046Z,93.0529
2023-05-14T05:09:02.239Z,92.5763
2023-05-14T05:10:03.328Z,92.4831
2023-05-14T05:11:04.914Z,92.7911
2023-05-14T05:12:06.642Z,92.8214
2023-05-14T05:13:08.211Z,92.1766
2023-05-14T05:14:09.225Z,91.5326
2023-05-14T05:15:10.831Z,91.8096
2023-05-14T05:16:12.409Z,92.3444
2023-05-14T05:17:14.430Z,93.0170
2023-05-14T05:18:15.894Z,92.3448
2023-05-14T05:19:16.992Z,92.0216
2023-05-14T05:20:18.520Z,91.7273
2023-05-14T05:21:20.335Z,91.3897
2023-05-14T05:22:21.240Z,92.0495
2023-05-14T05:23:22.131Z,91.1769
2023-05-14T05:24:23.075Z,91.0337
2023-05-14T05:25:24.009Z,91.4529
2023-05-14T05:26:24.928Z,91.2271
2023-05-14T05:27:25.845Z,90.2961
2023-05-14T05:28:26.834Z,89.9183
2023-05-14T05:29:27.729Z,89.5373
2023-05-14T05:30:28.676Z,89.9858
2023-05-14T05:31:30.780Z,91.0239
2023-05-14T05:32:31.792Z,90.5906
2023-05-14T05:33:33.329Z,89.3835
2023-05-14T05:34:34.979Z,89.0948
2023-05-14T05:36:37.331Z,88.8951
2023-05-14T05:37:38.891Z,88.9400
2023-05-14T05:38:39.793Z,89.4763
2023-05-14T05:39:40.757Z,89.8491
2023-05-14T05:40:42.246Z,90.0140
2023-05-14T05:41:43.167Z,90.0186
2023-05-14T05:42:44.115Z,90.5151
2023-05-14T05:43:45.656Z,89.5033
2023-05-14T05:44:47.193Z,89.1471
2023-05-14T05:45:48.147Z,88.8289
2023-05-14T05:47:49.856Z,90.1346
2023-05-14T05:48:50.764Z,89.1210
2023-05-14T05:50:53.333Z,86.8201
2023-05-14T05:51:54.244Z,87.2450
2023-05-14T05:52:55.160Z,87.0755
2023-05-14T05:54:57.309Z,87.0256
2023-05-14T05:55:58.230Z,87.1372
2023-05-14T05:56:59.107Z,86.5931
2023-05-14T05:59:01.789Z,84.4022
2023-05-14T06:00:03.973Z,85.1156
2023-05-14T06:01:04.873Z,85.9942
2023-05-14T06:02:05.808Z,86.7152
2023-05-14T06:03:06.746Z,87.2440
2023-05-14T06:04:07.666Z,87.3517
2023-05-14T06:05:08.595Z,87.3804
2023-05-14T06:06:09.547Z,87.4570
2023-05-14T06:07:10.587Z,86.9271
2023-05-14T06:08:11.740Z,88.1674
2023-05-14T06:09:12.661Z,88.3407
2023-05-14T06:10:13.600Z,89.2587
2023-05-14T06:11:15.107Z,89.5030
2023-05-14T06:12:16.637Z,90.1295
2023-05-14T06:13:18.530Z,90.5392
2023-05-14T06:14:19.444Z,90.0678
2023-05-14T06:16:21.282Z,91.1578
2023-05-14T06:17:22.294Z,91.0464
2023-05-14T06:19:24.604Z,90.9997
2023-05-14T06:20:26.146Z,90.8768
2023-05-14T06:21:27.169Z,90.8157
2023-05-14T06:22:28.684Z,90.6262
2023-05-14T06:23:30.236Z,90.9499
2023-05-14T06:24:31.816Z,90.6793
2023-05-14T06:25:33.813Z,91.1769
2023-05-14T06:26:34.694Z,91.2470
2023-05-14T06:27:36.250Z,91.2686
2023-05-14T06:28:37.703Z,91.2510
2023-05-14T06:29:38.590Z,91.3933
2023-05-14T06:30:39.481Z,91.5182
2023-05-14T06:31:41.104Z,91.2827
2023-05-14T06:32:42.672Z,91.1068
2023-05-14T06:33:43.575Z,91.0855
2023-05-14T06:34:45.142Z,90.7126
2023-05-14T06:35:46.673Z,90.2280
2023-05-14T06:36:47.596Z,90.4657
2023-05-14T06:37:48.477Z,89.9189
2023-05-14T06:38:50.238Z,90.0858
2023-05-14T06:39:51.158Z,90.1494
2023-05-14T06:40:52.118Z,90.1109
2023-05-14T06:41:53.745Z,90.0048
2023-05-14T06:42:54.700Z,90.6891
2023-05-14T06:43:54.997Z,90.3488
2023-05-14T06:45:01.527Z,90.2578
2023-05-14T06:46:02.527Z,90.0343
2023-05-14T06:51:06.807Z,90.4111
2023-05-14T06:52:24.528Z,89.3472
2023-05-14T06:53:08.921Z,90.1436
2023-05-14T06:54:09.890Z,90.1552
2023-05-14T06:55:10.818Z,90.7713
2023-05-14T06:56:12.060Z,89.9690
2023-05-14T06:57:13.718Z,90.1835
2023-05-14T06:58:14.666Z,90.1343
2023-05-14T06:59:16.214Z,90.3168
2023-05-14T07:00:17.827Z,90.9707
2023-05-14T07:01:19.857Z,90.1111
2023-05-14T07:03:22.276Z,90.7984
2023-05-14T07:04:23.269Z,90.5622
2023-05-14T07:05:24.228Z,90.8333
2023-05-14T07:07:25.954Z,91.2587
2023-05-14T07:08:26.893Z,91.4537
2023-05-14T07:10:28.883Z,92.4279
2023-05-14T07:11:29.778Z,91.9398
2023-05-14T07:12:30.740Z,92.2408
2023-05-14T07:14:32.507Z,91.7112
2023-05-14T07:15:33.437Z,92.1531
2023-05-14T07:16:34.393Z,92.9126
2023-05-14T07:17:35.450Z,92.3323
2023-05-14T07:18:36.409Z,92.3251
2023-05-14T07:19:37.373Z,92.3697
2023-05-14T07:20:38.344Z,92.6013
2023-05-14T07:21:39.310Z,93.5654
2023-05-14T07:22:40.319Z,93.0190
2023-05-14T07:23:41.282Z,92.8807
2023-05-14T07:24:42.247Z,92.3036
2023-05-14T07:25:43.210Z,92.0492
2023-05-14T07:26:44.190Z,92.0511
2023-05-14T07:27:45.164Z,91.4300
2023-05-14T07:28:46.093Z,91.7348
2023-05-14T07:29:47.015Z,90.3497
2023-05-14T07:30:47.915Z,88.9400
2023-05-14T07:31:49.023Z,88.0592
2023-05-14T07:32:50.012Z,87.4862
2023-05-14T07:33:50.925Z,87.0120
2023-05-14T07:34:51.852Z,86.6949
2023-05-14T07:35:52.791Z,86.2707
2023-05-14T07:36:54.342Z,85.6115
2023-05-14T07:37:55.870Z,86.7424
2023-05-14T07:38:57.117Z,85.7285
2023-05-14T07:39:58.642Z,87.6385
2023-05-14T07:40:59.547Z,87.7931
2023-05-14T07:43:01.952Z,88.5720
2023-05-14T07:44:02.846Z,87.5533
2023-05-14T07:45:03.778Z,87.8107
2023-05-14T07:46:05.228Z,84.5088
2023-05-14T07:47:06.162Z,82.0071
2023-05-14T07:48:07.218Z,79.8032
2023-05-14T07:49:08.426Z,80.4124
2023-05-14T07:50:09.922Z,77.9250
2023-05-14T07:51:10.858Z,78.5668
2023-05-14T07:52:23.275Z,76.2986
2023-05-14T07:56:16.961Z,73.5167
2023-05-14T07:57:17.869Z,70.9120
2023-05-14T07:58:19.419Z,76.8045
2023-05-14T07:59:20.967Z,79.1980
2023-05-14T08:00:22.054Z,75.4474
2023-05-14T08:01:23.784Z,76.7504
2023-05-14T08:02:24.768Z,80.8539
2023-05-14T08:03:42.947Z,81.5695
2023-05-14T08:04:44.487Z,82.6734
2023-05-14T08:05:45.436Z,81.8915
2023-05-14T08:06:46.290Z,77.3118
2023-05-14T08:07:47.806Z,74.4259
2023-05-14T08:08:48.730Z,73.5376
2023-05-14T08:09:50.175Z,78.5301
2023-05-14T08:10:51.152Z,78.4033
2023-05-14T08:11:52.415Z,79.7306
2023-05-14T08:12:53.512Z,76.9451
2023-05-14T08:13:54.392Z,75.3013
2023-05-14T08:14:55.300Z,76.5180
2023-05-14T08:15:56.868Z,73.6344
2023-05-14T08:16:57.798Z,76.4267
2023-05-14T08:17:58.833Z,78.4035
2023-05-14T08:19:00.354Z,80.4660
2023-05-14T08:20:01.829Z,80.5944
2023-05-14T08:21:03.654Z,79.7423
2023-05-14T08:22:05.227Z,75.3131
2023-05-14T08:23:06.151Z,76.2382
2023-05-14T08:24:07.741Z,76.6998
2023-05-14T08:25:09.201Z,72.8135
2023-05-14T08:26:10.206Z,74.1485
2023-05-14T08:27:11.790Z,77.2027
2023-05-14T08:28:35.593Z,80.4153
2023-05-14T08:29:16.126Z,82.7954
2023-05-14T08:30:14.697Z,81.8222
2023-05-14T08:31:15.641Z,81.8152
2023-05-14T08:32:23.347Z,81.3301
2023-05-14T08:34:21.002Z,81.9840
2023-05-14T08:35:28.820Z,79.1971
2023-05-14T08:38:26.449Z,80.7622
2023-05-14T08:39:27.349Z,81.1503
2023-05-14T08:40:28.213Z,80.3871
2023-05-14T08:41:29.123Z,78.5851
2023-05-14T08:42:30.590Z,78.2052
2023-05-14T08:43:31.489Z,78.5460
2023-05-14T08:44:32.352Z,78.0415
2023-05-14T08:45:33.918Z,78.0024
2023-05-14T08:46:34.840Z,78.9925
2023-05-14T08:47:35.771Z,77.7272
2023-05-14T08:48:36.658Z,75.9176
2023-05-14T08:49:37.571Z,77.8516
2023-05-14T08:53:43.801Z,76.9374
2023-05-14T08:54:44.727Z,73.8122
2023-05-14T08:55:45.596Z,74.1867
2023-05-14T08:56:47.192Z,74.5032
2023-05-14T08:57:48.412Z,74.6003
2023-05-14T08:58:50.408Z,77.4873
2023-05-14T08:59:51.263Z,76.6914
2023-05-14T09:00:52.157Z,72.3179
2023-05-14T09:02:05.048Z,64.5420
2023-05-14T09:02:55.391Z,71.0609
2023-05-14T09:03:57.010Z,71.0953
2023-05-14T09:04:57.882Z,70.3138
2023-05-14T09:06:00.196Z,67.3162
2023-05-14T09:07:01.976Z,68.9403
2023-05-14T09:08:03.438Z,66.8990
2023-05-14T09:10:04.986Z,75.1231
2023-05-14T09:11:05.849Z,72.4491
2023-05-14T09:12:07.217Z,70.5074
2023-05-14T09:13:08.404Z,71.8177
2023-05-14T09:14:09.192Z,66.4647
2023-05-14T09:15:10.788Z,72.0176
2023-05-14T09:16:12.429Z,72.6481
2023-05-14T09:17:13.290Z,73.5927
2023-05-14T09:18:14.149Z,72.7802
2023-05-14T09:19:15.137Z,71.4933
2023-05-14T09:20:16.029Z,71.3619
2023-05-14T09:21:16.872Z,73.5382
2023-05-14T09:22:17.683Z,75.4723
2023-05-14T09:23:19.120Z,76.2915
2023-05-14T09:24:19.987Z,76.3753
2023-05-14T09:25:21.445Z,77.2168
2023-05-14T09:26:22.334Z,76.0255
2023-05-14T09:27:23.774Z,76.7307
2023-05-14T09:28:25.319Z,77.8693
2023-05-14T09:29:26.173Z,76.3189
2023-05-14T09:30:27.343Z,77.4984
2023-05-14T09:31:28.312Z,78.6855
2023-05-14T09:32:29.233Z,79.2288
2023-05-14T09:33:30.735Z,79.9988
2023-05-14T09:34:31.628Z,79.6519
2023-05-14T09:35:32.672Z,80.5236
2023-05-14T09:36:34.182Z,79.7589
2023-05-14T09:37:35.366Z,78.3871
2023-05-14T09:38:36.251Z,76.0622
2023-05-14T09:39:37.173Z,77.4273
2023-05-14T09:40:38.059Z,79.6100
2023-05-14T09:41:38.946Z,76.0494
2023-05-14T09:43:41.349Z,74.8395
2023-05-14T09:44:42.224Z,75.0675
2023-05-14T09:46:44.969Z,73.8370
2023-05-14T09:47:47.177Z,74.9753
2023-05-14T09:48:48.241Z,74.9506
2023-05-14T09:49:49.731Z,74.1811
2023-05-14T09:50:50.686Z,73.9096
2023-05-14T09:51:52.513Z,72.0835
2023-05-14T09:52:54.080Z,74.9998
2023-05-14T09:53:54.960Z,75.8815
2023-05-14T09:54:55.838Z,74.6378
2023-05-14T09:55:56.683Z,75.4215
2023-05-14T09:56:57.539Z,76.1589
2023-05-14T10:01:01.158Z,80.9563
2023-05-14T10:02:02.302Z,82.4195
2023-05-14T10:03:03.208Z,81.2894
2023-05-14T10:04:04.116Z,80.5500
2023-05-14T10:05:05.041Z,80.3358
2023-05-14T10:06:05.889Z,79.2847
2023-05-14T10:08:07.475Z,82.8613
2023-05-14T10:09:08.376Z,81.7137
2023-05-14T10:11:10.244Z,80.4633
2023-05-14T10:12:11.113Z,80.7149
2023-05-14T10:13:33.892Z,80.6194
2023-05-14T10:14:16.475Z,78.9579
2023-05-14T10:15:17.394Z,78.4588
2023-05-14T10:16:18.342Z,78.8357
2023-05-14T10:17:19.886Z,79.7070
2023-05-14T10:18:21.409Z,79.9417
2023-05-14T10:19:23.078Z,79.0387
2023-05-14T10:20:24.246Z,78.1746
2023-05-14T10:21:25.376Z,79.4193
2023-05-14T10:22:26.780Z,77.9482
2023-05-14T10:23:27.986Z,77.7732
2023-05-14T10:24:30.996Z,80.6071
2023-05-14T10:25:31.880Z,79.9955
2023-05-14T10:27:34.092Z,77.5514
2023-05-14T10:28:34.951Z,77.6934
2023-05-14T10:29:36.447Z,77.7135
2023-05-14T10:30:37.335Z,80.3132
2023-05-14T10:31:38.255Z,79.9632
2023-05-14T10:32:39.206Z,81.0772
2023-05-14T10:33:40.114Z,80.5917
2023-05-14T10:34:41.007Z,80.0438
2023-05-14T10:35:42.556Z,81.6714
2023-05-14T10:36:43.986Z,80.3552
2023-05-14T10:37:44.962Z,80.9727
2023-05-14T10:38:47.248Z,77.9023
2023-05-14T10:39:48.328Z,78.1349
2023-05-14T10:41:14.275Z,79.3845
2023-05-14T10:41:50.080Z,79.1079
2023-05-14T10:42:50.963Z,77.9494
2023-05-14T10:43:51.854Z,79.5408
2023-05-14T10:45:54.931Z,78.0636
2023-05-14T10:46:56.659Z,79.7976
2023-05-14T10:47:57.459Z,77.7394
2023-05-14T10:48:58.713Z,79.2232
2023-05-14T10:50:00.214Z,76.2551
2023-05-14T10:51:01.157Z,76.4784
2023-05-14T10:52:02.287Z,72.7829
2023-05-14T10:53:03.140Z,73.1593
2023-05-14T10:54:04.070Z,74.4268
2023-05-14T10:55:04.925Z,72.6986
2023-05-14T10:56:06.554Z,74.0085
2023-05-14T10:57:08.052Z,74.9908
2023-05-14T10:59:08.853Z,75.6974
2023-05-14T11:00:11.019Z,74.6837
2023-05-14T11:01:11.909Z,74.1052
2023-05-14T11:03:14.905Z,75.2297
2023-05-14T11:04:16.097Z,73.4867
2023-05-14T11:05:33.375Z,71.1351
2023-05-14T11:06:17.162Z,69.6079
2023-05-14T11:07:18.026Z,70.6493
2023-05-14T11:08:22.378Z,70.0561
2023-05-14T11:11:22.140Z,63.2682
2023-05-14T11:12:23.071Z,63.6584
2023-05-14T11:13:24.706Z,67.0303
2023-05-14T11:14:25.781Z,68.1906
2023-05-14T11:15:27.722Z,65.9284
2023-05-14T11:16:28.822Z,65.1735
2023-05-14T11:17:29.883Z,65.6006
2023-05-14T11:18:30.795Z,66.0644
2023-05-14T11:19:32.435Z,66.5845
2023-05-14T11:20:33.588Z,69.9252
2023-05-14T11:21:35.223Z,71.1775
2023-05-14T11:22:36.532Z,73.5034
2023-05-14T11:23:37.581Z,76.5449
2023-05-14T11:24:38.460Z,76.9183
2023-05-14T11:26:41.675Z,78.3482
2023-05-14T11:27:42.538Z,77.7888
2023-05-14T11:28:43.450Z,77.7935
2023-05-14T11:29:44.354Z,76.9358
2023-05-14T11:30:45.645Z,78.0468
2023-05-14T11:31:46.539Z,78.9326
2023-05-14T11:32:48.041Z,78.4610
2023-05-14T11:37:53.946Z,76.5329
2023-05-14T11:38:55.022Z,77.9507
2023-05-14T11:42:10.542Z,72.6933
2023-05-14T11:44:01.426Z,74.3538
2023-05-14T11:45:03.152Z,74.5853
2023-05-14T11:46:04.124Z,73.5521
2023-05-14T11:47:05.812Z,75.0731
2023-05-14T11:48:06.815Z,72.9741
2023-05-14T11:49:07.741Z,72.7996
2023-05-14T11:50:19.997Z,73.8714
2023-05-14T11:54:16.661Z,73.5159
2023-05-14T11:55:18.202Z,73.1208
2023-05-14T11:56:19.602Z,73.0599
2023-05-14T11:57:20.503Z,73.8394
2023-05-14T11:58:21.485Z,72.6683
2023-05-14T11:59:24.315Z,71.7704
2023-05-14T12:00:23.759Z,70.6800
2023-05-14T12:01:24.839Z,72.0532
2023-05-14T12:02:26.489Z,69.7170
2023-05-14T12:03:28.103Z,68.8804
2023-05-14T12:05:30.508Z,70.7232
2023-05-14T12:06:32.099Z,70.5055
2023-05-14T12:07:33.599Z,71.5703
2023-05-14T12:08:34.592Z,72.5015
2023-05-14T12:09:35.863Z,76.6417
2023-05-14T12:10:36.920Z,76.7631
2023-05-14T12:11:38.233Z,75.5020
2023-05-14T12:12:39.546Z,76.3002
2023-05-14T12:13:40.784Z,75.4049
2023-05-14T12:14:41.851Z,76.0396
2023-05-14T12:15:42.228Z,76.3670
2023-05-14T12:16:43.256Z,77.6810
2023-05-14T12:17:44.911Z,78.7668
2023-05-14T12:18:45.875Z,80.4268
2023-05-14T12:19:47.598Z,81.7462
2023-05-14T12:20:48.539Z,81.8055
2023-05-14T12:21:49.501Z,82.5484
2023-05-14T12:22:50.554Z,82.9353
2023-05-14T12:23:51.491Z,83.5067
2023-05-14T12:24:52.474Z,83.9262
2023-05-14T12:25:53.422Z,83.7628
2023-05-14T12:26:55.259Z,84.1369
2023-05-14T12:27:56.254Z,84.6650
2023-05-14T12:28:57.210Z,84.3812
2023-05-14T12:30:06.289Z,84.9409
2023-05-14T12:31:00.378Z,85.5083
2023-05-14T12:32:01.325Z,85.3526
2023-05-14T12:33:02.344Z,86.1183
2023-05-14T12:34:03.987Z,86.0095
2023-05-14T12:35:05.022Z,86.6389
2023-05-14T12:36:20.656Z,87.1871
2023-05-14T12:37:07.636Z,87.2473
2023-05-14T12:38:08.572Z,88.2099
2023-05-14T12:39:09.561Z,88.7343
2023-05-14T12:40:10.507Z,88.7826
2023-05-14T12:41:11.551Z,88.8390
2023-05-14T12:42:12.996Z,88.8656
2023-05-14T12:43:13.985Z,89.4136
2023-05-14T12:44:14.984Z,89.8828
2023-05-14T12:45:15.922Z,89.7581
2023-05-14T12:46:16.905Z,89.8986
2023-05-14T12:47:18.045Z,89.4035
2023-05-14T12:48:19.089Z,89.0013
2023-05-14T12:49:20.077Z,88.1846
2023-05-14T12:50:21.173Z,88.8932
2023-05-14T12:51:22.131Z,87.8889
2023-05-14T12:52:36.903Z,88.9634
2023-05-14T12:54:25.095Z,88.7791
2023-05-14T12:57:27.794Z,88.7268
2023-05-14T12:59:29.614Z,89.3953
2023-05-14T13:00:30.568Z,89.2644
2023-05-14T13:01:31.628Z,89.0335
2023-05-14T13:02:32.705Z,88.7110
2023-05-14T13:03:33.674Z,86.3974
2023-05-14T13:04:35.020Z,85.6697
2023-05-14T13:05:35.978Z,87.5186
2023-05-14T13:06:36.990Z,87.2961
2023-05-14T13:07:38.003Z,85.6404
2023-05-14T13:08:39.689Z,86.1933
2023-05-14T13:09:39.002Z,86.8757
2023-05-14T13:10:40.059Z,87.0465
2023-05-14T13:11:41.035Z,85.4792
2023-05-14T13:12:41.975Z,85.3644
2023-05-14T13:13:42.946Z,84.4177
2023-05-14T13:14:43.877Z,82.0940
2023-05-14T13:16:45.630Z,81.5715
2023-05-14T13:17:46.659Z,80.7381
2023-05-14T13:18:47.634Z,81.9476
2023-05-14T13:19:48.627Z,83.4753
2023-05-14T13:21:50.429Z,82.3388
2023-05-14T13:22:51.378Z,82.2288
2023-05-14T13:23:52.368Z,81.2092
2023-05-14T13:24:53.368Z,82.0162
2023-05-14T13:25:54.348Z,81.7026
2023-05-14T13:26:55.287Z,82.1689
2023-05-14T13:27:56.259Z,81.0681
2023-05-14T13:28:57.228Z,79.7377
2023-05-14T13:29:58.864Z,80.7542
2023-05-14T13:31:00.202Z,80.5648
2023-05-14T13:32:01.158Z,79.4794
2023-05-14T13:33:02.183Z,81.4649
2023-05-14T13:35:04.650Z,78.0426
2023-05-14T13:36:06.274Z,77.0028
2023-05-14T13:37:07.270Z,80.1928
2023-05-14T13:39:09.034Z,78.9606
2023-05-14T13:40:09.991Z,79.5114
2023-05-14T13:42:12.735Z,77.7965
2023-05-14T13:43:14.358Z,78.7210
2023-05-14T13:44:15.296Z,76.8303
2023-05-14T13:45:16.913Z,77.0422
2023-05-14T13:46:17.871Z,75.9560
2023-05-14T13:47:18.835Z,76.1310
2023-05-14T13:48:19.765Z,75.8411
2023-05-14T13:49:20.729Z,75.8302
2023-05-14T13:50:21.663Z,74.2609
2023-05-14T13:51:22.624Z,74.8506
2023-05-14T13:52:23.552Z,78.2398
2023-05-14T13:54:26.080Z,77.6555
2023-05-14T13:55:27.719Z,77.2239
2023-05-14T13:58:31.354Z,72.9295
2023-05-14T13:59:32.268Z,70.7834
2023-05-14T14:00:33.164Z,70.3040
2023-05-14T14:01:34.710Z,70.8533